EGEC - Campbeltown
Distance from station: E 5mi, 14km
Updated: 12/13/2017 6:50am
Rain, Partly cloudy
Rain, Partly cloudy
 Wind from WNW
Wind: WNW 20 mph , 31 km/h
Temperature: 39°F , 4°C
Wind Chill: 29°F , -2°C
Dew Point: 36°F , 2°C
Humidity: 87%
Barometer: 29.03 inHg , 983 hPa
Summary: Rain
Clouds: Partly Cloudy
Visibility: 6 miles , 10 km
Cloud details: Few Clouds 1000 ft
Partly Cloudy 2500 ft
2017/12/13 14:50 EGEC 131450Z 29017KT 9999 RA FEW010 SCT025 04/02 Q0983